ilmateenistus.ee keskkonnaagentuur.ee
EETN Tallinn
FTEO31 EETN 220500
TAF EETN 220530Z 2206/2306 14010KT 9999 BKN008 BKN020 TEMPO TEMPO
    2206/2212 3000 SHSN BKN003 SCT015CB BKN020 TEMPO 2303/2306 16015G26KT
    TEMPO 2303/2306 3000 SN BLSN BKN004 OVC015=

METAR EETN 220650Z 11006KT 8000 OVC004 M00/M01 Q1011 R08/290195 TEMPO 4000 SN OVC002=
Tallinn
EEKA Kärdla
FCEO32 EETN 220400
TAF EEKA 220400Z 2205/2211 VRB02KT 9999 SCT008 BKN020 TEMPO 2205/2209
    3000 SHSN BKN004 SCT013CB=

METAR EEKA 220650Z 00000KT 9999 SCT033 M01/M01 Q1011=
Kärdla
EEKE Kuressaare
FCEO32 EETN 220600
TAF EEKE 220600Z 2207/2213 VRB02KT 9999 SCT010 BKN020 TEMPO 2207/2213
    1500 SHSN BR BKN004 SCT015CB=

METAR EEKE 220650Z 28002KT 9000 NSC M05/M05 Q1012 R17/190093=
Kuressaare
EEPU Pärnu
METAR EEPU 220650Z 11003KT 050V150 8000 BKN029 M02/M02 Q1011=
Pärnu
EETU Tartu
METAR EETU 220650Z AUTO VRB02KT 0150 R26/0450N FZFG VV001 M03/M03 Q1012=
Tartu
EEEI Ämari
METAR EEEI 220650Z 12005KT 4000 SNRA OVC003 00/00 Q1011 R24/290095 NOSIG=
Ämari